createdAt,value
2024-03-26T00:02:05.242Z,4.68
2024-03-26T00:04:33.213Z,4.68
2024-03-26T00:07:01.134Z,4.67
2024-03-26T00:09:29.148Z,4.63
2024-03-26T00:11:57.036Z,4.59
2024-03-26T00:14:25.201Z,4.54
2024-03-26T00:16:53.252Z,4.52
2024-03-26T00:19:21.122Z,4.52
2024-03-26T00:21:48.982Z,4.51
2024-03-26T00:24:17.258Z,4.49
2024-03-26T00:26:45.133Z,4.48
2024-03-26T00:29:12.986Z,4.45
2024-03-26T00:31:40.856Z,4.43
2024-03-26T00:34:08.946Z,4.40
2024-03-26T00:36:37.311Z,4.36
2024-03-26T00:39:05.166Z,4.31
2024-03-26T00:41:33.031Z,4.27
2024-03-26T00:44:01.307Z,4.25
2024-03-26T00:46:29.480Z,4.23
2024-03-26T00:48:57.345Z,4.25
2024-03-26T00:51:25.415Z,4.27
2024-03-26T00:53:53.234Z,4.29
2024-03-26T00:56:21.151Z,4.32
2024-03-26T00:58:49.010Z,4.36
2024-03-26T01:01:16.932Z,4.39
2024-03-26T01:03:44.844Z,4.41
2024-03-26T01:06:13.019Z,4.42
2024-03-26T01:08:40.992Z,4.42
2024-03-26T01:11:08.958Z,4.42
2024-03-26T01:13:36.819Z,4.44
2024-03-26T01:16:06.250Z,4.43
2024-03-26T01:18:34.188Z,4.43
2024-03-26T01:21:02.087Z,4.43
2024-03-26T01:23:30.027Z,4.42
2024-03-26T01:25:57.995Z,4.37
2024-03-26T01:28:25.861Z,4.30
2024-03-26T01:30:53.720Z,4.29
2024-03-26T01:33:21.688Z,4.32
2024-03-26T01:35:55.946Z,4.36
2024-03-26T01:38:23.869Z,4.39
2024-03-26T01:40:51.836Z,4.41
2024-03-26T01:43:19.701Z,4.42
2024-03-26T01:45:47.667Z,4.42
2024-03-26T01:48:15.530Z,4.40
2024-03-26T01:50:43.511Z,4.38
2024-03-26T01:53:11.673Z,4.34
2024-03-26T01:55:39.744Z,4.30
2024-03-26T01:58:08.120Z,4.25
2024-03-26T02:00:36.730Z,4.21
2024-03-26T02:03:04.672Z,4.18
2024-03-26T02:05:32.646Z,4.16
2024-03-26T02:08:00.718Z,4.13
2024-03-26T02:10:28.681Z,4.10
2024-03-26T02:12:56.542Z,4.07
2024-03-26T02:15:24.513Z,4.03
2024-03-26T02:17:52.374Z,4.00
2024-03-26T02:20:22.596Z,3.98
2024-03-26T02:22:57.209Z,3.95
2024-03-26T02:25:25.083Z,3.90
2024-03-26T02:27:52.945Z,3.87
2024-03-26T02:30:21.028Z,3.86
2024-03-26T02:32:48.905Z,3.84
2024-03-26T02:35:16.851Z,3.82
2024-03-26T02:37:44.820Z,3.78
2024-03-26T02:40:13.502Z,3.73
2024-03-26T02:42:41.369Z,3.69
2024-03-26T02:45:10.569Z,3.65
2024-03-26T02:47:38.432Z,3.61
2024-03-26T02:50:07.012Z,3.59
2024-03-26T02:52:36.717Z,3.56
2024-03-26T02:55:05.201Z,3.52
2024-03-26T02:57:33.066Z,3.49
2024-03-26T03:00:01.040Z,3.46
2024-03-26T03:02:29.116Z,3.44
2024-03-26T03:04:56.971Z,3.41
2024-03-26T03:07:24.852Z,3.38
2024-03-26T03:09:52.706Z,3.38
2024-03-26T03:12:20.565Z,3.37
2024-03-26T03:14:48.443Z,3.35
2024-03-26T03:17:16.356Z,3.34
2024-03-26T03:19:44.161Z,3.34
2024-03-26T03:22:12.539Z,3.33
2024-03-26T03:24:40.529Z,3.32
2024-03-26T03:27:08.358Z,3.31
2024-03-26T03:29:36.240Z,3.27
2024-03-26T03:32:04.821Z,3.24
2024-03-26T03:34:32.889Z,3.21
2024-03-26T03:37:00.762Z,3.19
2024-03-26T03:39:28.724Z,3.18
2024-03-26T03:41:56.588Z,3.16
2024-03-26T03:44:24.656Z,3.14
2024-03-26T03:46:52.523Z,3.14
2024-03-26T03:49:20.388Z,3.13
2024-03-26T03:51:48.259Z,3.12
2024-03-26T03:54:16.116Z,3.11
2024-03-26T03:56:44.108Z,3.08
2024-03-26T03:59:11.961Z,3.06
2024-03-26T04:01:39.926Z,3.03
2024-03-26T04:04:07.993Z,3.01
2024-03-26T04:06:36.481Z,3.00
2024-03-26T04:09:05.771Z,2.98
2024-03-26T04:11:35.884Z,2.96
2024-03-26T04:14:04.080Z,2.93
2024-03-26T04:16:32.031Z,2.92
2024-03-26T04:18:59.900Z,2.89
2024-03-26T04:21:27.759Z,2.87
2024-03-26T04:23:56.236Z,2.85
2024-03-26T04:26:24.103Z,2.83
2024-03-26T04:28:52.075Z,2.82
2024-03-26T04:31:19.937Z,2.80
2024-03-26T04:33:47.686Z,2.80
2024-03-26T04:36:15.562Z,2.79
2024-03-26T04:38:43.637Z,2.76
2024-03-26T04:41:11.497Z,2.71
2024-03-26T04:43:39.364Z,2.71
2024-03-26T04:46:07.236Z,2.71
2024-03-26T04:48:35.133Z,2.72
2024-03-26T04:51:03.270Z,2.73
2024-03-26T04:53:31.132Z,2.74
2024-03-26T04:55:59.315Z,2.74
2024-03-26T04:58:27.272Z,2.72
2024-03-26T05:00:55.037Z,2.71
2024-03-26T05:03:23.002Z,2.69
2024-03-26T05:05:50.931Z,2.66
2024-03-26T05:08:18.838Z,2.66
2024-03-26T05:10:47.122Z,2.66
2024-03-26T05:13:16.015Z,2.67
2024-03-26T05:15:43.823Z,2.68
2024-03-26T05:18:11.833Z,2.68
2024-03-26T05:20:39.700Z,2.67
2024-03-26T05:23:07.667Z,2.68
2024-03-26T05:25:38.008Z,2.72
2024-03-26T05:28:06.438Z,2.76
2024-03-26T05:30:34.215Z,2.81
2024-03-26T05:33:02.507Z,2.87
2024-03-26T05:35:31.192Z,2.93
2024-03-26T05:38:01.451Z,2.99
2024-03-26T05:40:30.006Z,3.05
2024-03-26T05:42:57.859Z,3.11
2024-03-26T05:45:25.656Z,3.17
2024-03-26T05:47:53.832Z,3.23
2024-03-26T05:50:22.068Z,3.30
2024-03-26T05:52:50.213Z,3.36
2024-03-26T05:55:18.414Z,3.44
2024-03-26T05:57:46.280Z,3.52
2024-03-26T06:00:15.228Z,3.57
2024-03-26T06:02:43.162Z,3.65
2024-03-26T06:05:11.208Z,3.72
2024-03-26T06:07:39.086Z,3.77
2024-03-26T06:10:07.612Z,3.83
2024-03-26T06:12:35.532Z,3.90
2024-03-26T06:15:03.808Z,3.97
2024-03-26T06:17:31.778Z,4.04
2024-03-26T06:19:59.630Z,4.11
2024-03-26T06:22:27.708Z,4.19
2024-03-26T06:24:55.666Z,4.27
2024-03-26T06:27:23.733Z,4.34
2024-03-26T06:29:51.727Z,4.44
2024-03-26T06:32:19.755Z,4.53
2024-03-26T06:34:48.919Z,4.62
2024-03-26T06:37:16.755Z,4.71
2024-03-26T06:39:44.803Z,4.81
2024-03-26T06:42:12.773Z,4.92
2024-03-26T06:44:40.770Z,5.02
2024-03-26T06:47:09.323Z,5.14
2024-03-26T06:49:37.402Z,5.25
2024-03-26T06:52:05.935Z,5.35
2024-03-26T06:54:34.356Z,5.48
2024-03-26T06:57:02.233Z,5.62
2024-03-26T06:59:30.288Z,5.74
2024-03-26T07:02:01.259Z,5.87
2024-03-26T07:04:29.222Z,5.99
2024-03-26T07:06:57.321Z,6.11
2024-03-26T07:09:25.230Z,6.25
2024-03-26T07:11:53.357Z,6.41
2024-03-26T07:14:21.742Z,6.57
2024-03-26T07:16:49.647Z,6.75
2024-03-26T07:19:17.612Z,6.95
2024-03-26T07:21:46.984Z,7.13
2024-03-26T07:24:14.983Z,7.33
2024-03-26T07:26:42.855Z,7.51
2024-03-26T07:29:10.917Z,7.68
2024-03-26T07:31:38.783Z,7.84
2024-03-26T07:34:06.707Z,8.00
2024-03-26T07:36:34.615Z,8.17
2024-03-26T07:39:02.702Z,8.34
2024-03-26T07:41:31.218Z,8.53
2024-03-26T07:44:00.260Z,8.70
2024-03-26T07:46:28.156Z,8.86
2024-03-26T07:48:56.129Z,9.01
2024-03-26T07:51:26.138Z,9.13
2024-03-26T07:53:54.086Z,9.29
2024-03-26T07:56:22.045Z,9.42
2024-03-26T07:58:49.925Z,9.55
2024-03-26T08:01:18.558Z,9.65
2024-03-26T08:03:46.765Z,9.78
2024-03-26T08:06:14.735Z,9.91
2024-03-26T08:08:42.701Z,10.07
2024-03-26T08:11:14.542Z,10.23
2024-03-26T08:13:42.631Z,10.28
2024-03-26T08:16:11.162Z,10.40
2024-03-26T08:18:39.175Z,10.55
2024-03-26T08:21:08.182Z,10.70
2024-03-26T08:23:36.048Z,10.88
2024-03-26T08:26:04.003Z,10.99
2024-03-26T08:28:31.999Z,11.11
2024-03-26T08:31:00.044Z,11.33
2024-03-26T08:33:28.010Z,11.30
2024-03-26T08:35:56.011Z,11.02
2024-03-26T08:38:24.119Z,10.76
2024-03-26T08:40:52.117Z,10.59
2024-03-26T08:43:20.407Z,10.48
2024-03-26T08:45:49.491Z,10.43
2024-03-26T08:48:17.659Z,10.39
2024-03-26T08:50:45.528Z,10.39
2024-03-26T08:53:13.390Z,10.36
2024-03-26T08:55:41.257Z,10.36
2024-03-26T08:58:09.439Z,10.41
2024-03-26T09:00:37.499Z,10.49
2024-03-26T09:03:05.754Z,10.59
2024-03-26T09:05:34.148Z,10.70
2024-03-26T09:08:02.126Z,10.79
2024-03-26T09:10:30.600Z,10.87
2024-03-26T09:12:58.466Z,10.93
2024-03-26T09:15:26.360Z,10.98
2024-03-26T09:17:54.721Z,11.07
2024-03-26T09:20:22.583Z,11.16
2024-03-26T09:22:50.438Z,11.26
2024-03-26T09:25:18.618Z,11.38
2024-03-26T09:27:46.578Z,11.48
2024-03-26T09:30:16.098Z,11.58
2024-03-26T09:32:44.263Z,11.70
2024-03-26T09:35:12.429Z,11.83
2024-03-26T09:37:40.398Z,11.99
2024-03-26T09:40:08.780Z,12.15
2024-03-26T09:42:36.842Z,12.30
2024-03-26T09:45:07.409Z,12.45
2024-03-26T09:47:35.863Z,12.61
2024-03-26T09:50:04.764Z,12.75
2024-03-26T09:52:36.188Z,12.86
2024-03-26T09:55:07.434Z,12.99
2024-03-26T09:57:35.398Z,13.14
2024-03-26T10:00:04.177Z,13.28
2024-03-26T10:02:32.972Z,13.43
2024-03-26T10:05:02.783Z,13.62
2024-03-26T10:07:30.855Z,13.78
2024-03-26T10:09:58.924Z,13.90
2024-03-26T10:12:26.907Z,14.02
2024-03-26T10:14:55.298Z,14.17
2024-03-26T10:17:23.233Z,14.30
2024-03-26T10:19:51.101Z,14.46
2024-03-26T10:22:18.967Z,14.59
2024-03-26T10:24:46.837Z,14.64
2024-03-26T10:27:14.694Z,14.72
2024-03-26T10:29:42.665Z,14.87
2024-03-26T10:32:17.296Z,15.02
2024-03-26T10:34:48.942Z,15.19
2024-03-26T10:37:16.810Z,15.39
2024-03-26T10:39:46.124Z,15.61
2024-03-26T10:42:14.689Z,15.85
2024-03-26T10:44:42.762Z,16.09
2024-03-26T10:47:11.250Z,16.34
2024-03-26T10:49:39.823Z,16.50
2024-03-26T10:52:09.034Z,16.55
2024-03-26T10:54:37.503Z,16.61
2024-03-26T10:57:05.788Z,16.76
2024-03-26T10:59:33.637Z,16.94
2024-03-26T11:02:01.780Z,17.23
2024-03-26T11:04:30.188Z,17.46
2024-03-26T11:06:59.084Z,17.57
2024-03-26T11:09:27.043Z,17.57
2024-03-26T11:11:59.833Z,17.62
2024-03-26T11:14:30.556Z,17.67
2024-03-26T11:17:01.289Z,17.71
2024-03-26T11:19:30.072Z,17.80
2024-03-26T11:21:58.249Z,17.88
2024-03-26T11:24:36.349Z,17.94
2024-03-26T11:27:08.827Z,17.98
2024-03-26T11:29:37.618Z,18.00
2024-03-26T11:32:08.346Z,18.05
2024-03-26T11:34:36.828Z,18.21
2024-03-26T11:37:06.959Z,18.45
2024-03-26T11:39:35.542Z,18.61
2024-03-26T11:42:04.852Z,18.67
2024-03-26T11:44:33.420Z,18.69
2024-03-26T11:47:01.278Z,18.72
2024-03-26T11:49:29.445Z,18.77
2024-03-26T11:51:57.312Z,18.85
2024-03-26T11:54:25.281Z,18.91
2024-03-26T11:56:53.351Z,18.95
2024-03-26T11:59:25.320Z,18.97
2024-03-26T12:01:53.175Z,18.98
2024-03-26T12:04:21.975Z,18.99
2024-03-26T12:06:49.939Z,19.00
2024-03-26T12:09:17.897Z,19.05
2024-03-26T12:11:45.876Z,19.06
2024-03-26T12:14:13.730Z,19.06
2024-03-26T12:16:42.423Z,19.11
2024-03-26T12:19:10.280Z,19.14
2024-03-26T12:21:38.356Z,19.18
2024-03-26T12:24:06.854Z,19.28
2024-03-26T12:26:34.697Z,19.39
2024-03-26T12:29:02.888Z,19.49
2024-03-26T12:31:31.045Z,19.50
2024-03-26T12:34:11.196Z,19.57
2024-03-26T12:36:39.776Z,19.79
2024-03-26T12:39:12.062Z,19.92
2024-03-26T12:41:40.322Z,19.89
2024-03-26T12:44:12.876Z,19.79
2024-03-26T12:46:41.538Z,19.72
2024-03-26T12:49:09.442Z,19.73
2024-03-26T12:51:37.517Z,19.83
2024-03-26T12:54:07.240Z,19.92
2024-03-26T12:56:36.480Z,20.02
2024-03-26T12:59:06.242Z,20.09
2024-03-26T13:01:35.044Z,20.17
2024-03-26T13:04:02.888Z,20.25
2024-03-26T13:06:30.754Z,20.36
2024-03-26T13:08:58.622Z,20.51
2024-03-26T13:11:26.592Z,20.76
2024-03-26T13:13:54.581Z,20.96
2024-03-26T13:16:22.618Z,21.19
2024-03-26T13:18:50.488Z,21.36
2024-03-26T13:21:18.971Z,21.42
2024-03-26T13:23:46.831Z,21.28
2024-03-26T13:26:14.696Z,21.16
2024-03-26T13:28:42.768Z,21.13
2024-03-26T13:31:10.635Z,21.05
2024-03-26T13:33:38.930Z,20.98
2024-03-26T13:36:07.522Z,21.03
2024-03-26T13:38:37.464Z,21.10
2024-03-26T13:41:06.706Z,21.21
2024-03-26T13:43:34.566Z,21.34
2024-03-26T13:46:02.519Z,21.49
2024-03-26T13:48:30.703Z,21.67
2024-03-26T13:50:58.569Z,21.80
2024-03-26T13:53:26.450Z,21.93
2024-03-26T13:55:54.323Z,22.06
2024-03-26T13:58:22.121Z,22.11
2024-03-26T14:00:50.142Z,22.06
2024-03-26T14:03:17.997Z,21.98
2024-03-26T14:05:46.171Z,21.88
2024-03-26T14:08:14.042Z,21.73
2024-03-26T14:10:42.123Z,21.45
2024-03-26T14:13:09.975Z,21.29
2024-03-26T14:15:37.858Z,21.13
2024-03-26T14:18:06.028Z,20.89
2024-03-26T14:20:33.935Z,20.56
2024-03-26T14:23:01.949Z,20.19
2024-03-26T14:25:30.017Z,19.77
2024-03-26T14:27:57.884Z,19.40
2024-03-26T14:30:25.956Z,19.03
2024-03-26T14:32:53.917Z,18.70
2024-03-26T14:35:21.992Z,18.50
2024-03-26T14:37:51.611Z,18.36
2024-03-26T14:40:19.771Z,18.27
2024-03-26T14:42:47.634Z,18.23
2024-03-26T14:45:15.504Z,18.32
2024-03-26T14:47:43.468Z,18.54
2024-03-26T14:50:14.000Z,18.78
2024-03-26T14:52:41.968Z,19.06
2024-03-26T14:55:10.246Z,19.35
2024-03-26T14:57:38.513Z,19.58
2024-03-26T15:00:07.052Z,19.75
2024-03-26T15:02:34.961Z,19.81
2024-03-26T15:05:05.697Z,19.74
2024-03-26T15:07:33.662Z,19.68
2024-03-26T15:10:01.696Z,19.72
2024-03-26T15:12:29.701Z,19.89
2024-03-26T15:14:58.380Z,20.07
2024-03-26T15:17:26.308Z,20.15
2024-03-26T15:19:54.221Z,20.10
2024-03-26T15:22:22.286Z,19.97
2024-03-26T15:24:50.258Z,19.90
2024-03-26T15:27:18.118Z,19.93
2024-03-26T15:30:04.936Z,20.02
2024-03-26T15:32:32.896Z,20.08
2024-03-26T15:35:00.771Z,20.11
2024-03-26T15:37:28.728Z,20.10
2024-03-26T15:39:56.809Z,20.08
2024-03-26T15:42:24.684Z,20.04
2024-03-26T15:44:52.938Z,20.00
2024-03-26T15:47:20.833Z,19.93
2024-03-26T15:49:48.773Z,19.81
2024-03-26T15:52:16.740Z,19.71
2024-03-26T15:54:44.637Z,19.58
2024-03-26T15:57:12.511Z,19.37
2024-03-26T15:59:40.439Z,19.15
2024-03-26T16:02:08.307Z,18.99
2024-03-26T16:04:36.482Z,18.83
2024-03-26T16:07:04.861Z,18.69
2024-03-26T16:09:32.723Z,18.53
2024-03-26T16:12:05.313Z,18.29
2024-03-26T16:14:33.362Z,17.98
2024-03-26T16:17:01.338Z,17.69
2024-03-26T16:19:29.304Z,17.45
2024-03-26T16:21:57.290Z,17.22
2024-03-26T16:24:25.254Z,16.99
2024-03-26T16:26:53.210Z,16.76
2024-03-26T16:29:21.175Z,16.53
2024-03-26T16:31:49.038Z,16.33
2024-03-26T16:34:17.005Z,16.15
2024-03-26T16:36:46.511Z,15.96
2024-03-26T16:39:16.649Z,15.79
2024-03-26T16:41:47.358Z,15.63
2024-03-26T16:44:15.224Z,15.48
2024-03-26T16:46:44.013Z,15.33
2024-03-26T16:49:11.897Z,15.19
2024-03-26T16:51:39.845Z,15.05
2024-03-26T16:54:07.717Z,14.92
2024-03-26T16:56:36.414Z,14.79
2024-03-26T16:59:05.798Z,14.67
2024-03-26T17:01:33.880Z,14.56
2024-03-26T17:04:01.834Z,14.45
2024-03-26T17:06:29.806Z,14.36
2024-03-26T17:08:57.677Z,14.26
2024-03-26T17:11:28.239Z,14.16
2024-03-26T17:13:58.321Z,14.07
2024-03-26T17:16:26.280Z,13.99
2024-03-26T17:18:55.281Z,13.91
2024-03-26T17:21:23.153Z,13.82
2024-03-26T17:23:51.120Z,13.75
2024-03-26T17:26:19.170Z,13.67
2024-03-26T17:28:48.064Z,13.59
2024-03-26T17:31:16.239Z,13.52
2024-03-26T17:33:44.176Z,13.45
2024-03-26T17:36:12.071Z,13.39
2024-03-26T17:38:42.392Z,13.34
2024-03-26T17:41:10.270Z,13.31
2024-03-26T17:43:38.325Z,13.28
2024-03-26T17:46:06.295Z,13.24
2024-03-26T17:48:34.163Z,13.19
2024-03-26T17:51:02.541Z,13.17
2024-03-26T17:53:30.610Z,13.13
2024-03-26T17:55:58.683Z,13.10
2024-03-26T17:58:30.127Z,13.07
2024-03-26T18:01:09.364Z,13.04
2024-03-26T18:03:37.639Z,13.01
2024-03-26T18:06:05.911Z,12.98
2024-03-26T18:08:33.777Z,12.94
2024-03-26T18:11:01.766Z,12.90
2024-03-26T18:13:30.540Z,12.86
2024-03-26T18:16:03.166Z,12.82
2024-03-26T18:18:31.302Z,12.77
2024-03-26T18:21:01.101Z,12.73
2024-03-26T18:23:29.060Z,12.67
2024-03-26T18:26:15.049Z,12.61
2024-03-26T18:28:42.930Z,12.56
2024-03-26T18:31:12.008Z,12.52
2024-03-26T18:33:39.975Z,12.48
2024-03-26T18:36:07.944Z,12.45
2024-03-26T18:38:36.016Z,12.41
2024-03-26T18:41:06.525Z,12.40
2024-03-26T18:43:39.242Z,12.36
2024-03-26T18:46:13.287Z,12.32
2024-03-26T18:48:42.038Z,12.28
2024-03-26T18:51:10.394Z,12.25
2024-03-26T18:53:38.567Z,12.23
2024-03-26T18:56:08.670Z,12.21
2024-03-26T18:58:40.659Z,12.19
2024-03-26T19:01:18.766Z,12.17
2024-03-26T19:03:48.048Z,12.16
2024-03-26T19:06:16.975Z,12.15
2024-03-26T19:08:45.840Z,12.12
2024-03-26T19:11:14.208Z,12.08
2024-03-26T19:13:42.480Z,12.05
2024-03-26T19:16:11.161Z,12.01
2024-03-26T19:18:39.139Z,11.99
2024-03-26T19:21:07.828Z,11.97
2024-03-26T19:23:37.222Z,11.95
2024-03-26T19:26:06.879Z,11.94
2024-03-26T19:28:35.614Z,11.92
2024-03-26T19:31:07.025Z,11.91
2024-03-26T19:33:35.875Z,11.90
2024-03-26T19:36:08.023Z,11.87
2024-03-26T19:38:37.210Z,11.85
2024-03-26T19:41:08.355Z,11.85
2024-03-26T19:43:38.143Z,11.82
2024-03-26T19:46:10.349Z,11.79
2024-03-26T19:48:39.529Z,11.77
2024-03-26T19:51:08.832Z,11.75
2024-03-26T19:53:37.031Z,11.73
2024-03-26T19:56:12.518Z,11.71
2024-03-26T19:58:43.582Z,11.69
2024-03-26T20:01:12.166Z,11.68
2024-03-26T20:03:40.135Z,11.66
2024-03-26T20:06:12.910Z,11.64
2024-03-26T20:08:44.093Z,11.61
2024-03-26T20:11:12.633Z,11.59
2024-03-26T20:13:41.481Z,11.57
2024-03-26T20:16:09.601Z,11.55
2024-03-26T20:18:37.465Z,11.53
2024-03-26T20:21:07.055Z,11.50
2024-03-26T20:23:34.894Z,11.47
2024-03-26T20:26:04.762Z,11.44
2024-03-26T20:28:32.936Z,11.40
2024-03-26T20:31:12.826Z,11.38
2024-03-26T20:33:42.082Z,11.35
2024-03-26T20:36:16.526Z,11.33
2024-03-26T20:38:45.366Z,11.31
2024-03-26T20:41:13.239Z,11.27
2024-03-26T20:43:41.512Z,11.25
2024-03-26T20:46:10.409Z,11.22
2024-03-26T20:48:38.602Z,11.18
2024-03-26T20:51:10.547Z,11.15
2024-03-26T20:53:39.220Z,11.11
2024-03-26T20:56:08.890Z,11.07
2024-03-26T20:58:36.911Z,11.04
2024-03-26T21:01:05.273Z,11.00
2024-03-26T21:03:36.314Z,10.97
2024-03-26T21:06:06.262Z,10.93
2024-03-26T21:08:35.347Z,10.90
2024-03-26T21:11:13.089Z,10.87
2024-03-26T21:13:41.348Z,10.84
2024-03-26T21:16:12.276Z,10.83
2024-03-26T21:18:48.937Z,10.79
2024-03-26T21:21:21.304Z,10.76
2024-03-26T21:23:49.962Z,10.73
2024-03-26T21:26:19.093Z,10.71
2024-03-26T21:28:47.501Z,10.68
2024-03-26T21:31:15.411Z,10.67
2024-03-26T21:33:43.315Z,10.66
2024-03-26T21:36:11.943Z,10.66
2024-03-26T21:38:39.917Z,10.65
2024-03-26T21:41:08.550Z,10.65
2024-03-26T21:43:36.592Z,10.63
2024-03-26T21:46:05.308Z,10.62
2024-03-26T21:48:33.519Z,10.60
2024-03-26T21:51:03.229Z,10.59
2024-03-26T21:53:31.199Z,10.59
2024-03-26T21:56:04.120Z,10.58
2024-03-26T21:58:32.151Z,10.57
2024-03-26T22:01:09.736Z,10.56
2024-03-26T22:03:38.015Z,10.55
2024-03-26T22:06:07.940Z,10.52
2024-03-26T22:08:35.807Z,10.49
2024-03-26T22:11:03.866Z,10.46
2024-03-26T22:13:32.456Z,10.43
2024-03-26T22:16:01.749Z,10.38
2024-03-26T22:18:30.435Z,10.35
2024-03-26T22:21:00.752Z,10.31
2024-03-26T22:23:30.454Z,10.27
2024-03-26T22:26:03.842Z,10.24
2024-03-26T22:28:31.730Z,10.20
2024-03-26T22:31:03.276Z,10.17
2024-03-26T22:33:31.325Z,10.14
2024-03-26T22:35:59.315Z,10.10
2024-03-26T22:38:27.287Z,10.08
2024-03-26T22:40:56.381Z,10.06
2024-03-26T22:43:25.162Z,10.04
2024-03-26T22:45:59.907Z,10.01
2024-03-26T22:48:28.470Z,10.00
2024-03-26T22:50:57.434Z,10.00
2024-03-26T22:53:25.845Z,10.00
2024-03-26T22:56:07.126Z,9.99
2024-03-26T22:58:35.087Z,10.00
2024-03-26T23:01:05.747Z,10.01
2024-03-26T23:03:33.795Z,10.01
2024-03-26T23:06:02.992Z,10.01
2024-03-26T23:08:31.258Z,10.00
2024-03-26T23:10:59.234Z,10.00
2024-03-26T23:13:27.913Z,9.98
2024-03-26T23:16:05.696Z,9.97
2024-03-26T23:18:33.681Z,9.96
2024-03-26T23:21:03.799Z,9.95
2024-03-26T23:23:31.661Z,9.94
2024-03-26T23:25:59.656Z,9.94
2024-03-26T23:28:27.596Z,9.94
2024-03-26T23:30:55.462Z,9.93
2024-03-26T23:33:23.332Z,9.94
2024-03-26T23:35:51.295Z,9.92
2024-03-26T23:38:19.175Z,9.93
2024-03-26T23:40:50.205Z,9.93
2024-03-26T23:43:18.384Z,9.93
2024-03-26T23:45:46.246Z,9.92
2024-03-26T23:48:14.308Z,9.93
2024-03-26T23:50:42.180Z,9.92
2024-03-26T23:53:10.666Z,9.92
2024-03-26T23:55:39.034Z,9.92
2024-03-26T23:58:06.998Z,9.91
